createdAt,value
2023-04-12T00:01:55.312Z,95441.44
2023-04-12T00:04:28.724Z,95436.50
2023-04-12T00:07:01.192Z,95429.03
2023-04-12T00:09:30.701Z,95431.44
2023-04-12T00:11:58.886Z,95427.53
2023-04-12T00:14:27.064Z,95426.16
2023-04-12T00:16:55.218Z,95414.34
2023-04-12T00:19:25.896Z,95418.38
2023-04-12T00:21:53.960Z,95415.28
2023-04-12T00:24:23.478Z,95414.00
2023-04-12T00:26:51.498Z,95411.69
2023-04-12T00:29:20.005Z,95412.84
2023-04-12T00:31:49.061Z,95403.44
2023-04-12T00:34:17.332Z,95396.97
2023-04-12T00:36:45.387Z,95392.06
2023-04-12T00:39:13.506Z,95392.50
2023-04-12T00:41:42.945Z,95392.28
2023-04-12T00:44:11.677Z,95383.31
2023-04-12T00:46:39.817Z,95377.69
2023-04-12T00:49:08.211Z,95382.16
2023-04-12T00:51:37.988Z,95382.16
2023-04-12T00:54:07.223Z,95374.00
2023-04-12T00:56:35.297Z,95369.41
2023-04-12T00:59:05.410Z,95379.28
2023-04-12T01:01:33.511Z,95377.31
2023-04-12T01:04:04.852Z,95366.06
2023-04-12T01:06:46.597Z,95363.66
2023-04-12T01:09:23.076Z,95369.63
2023-04-12T01:11:57.718Z,95365.72
2023-04-12T01:14:31.066Z,95359.38
2023-04-12T01:17:02.655Z,95348.59
2023-04-12T01:19:38.474Z,95352.63
2023-04-12T01:22:13.771Z,95349.72
2023-04-12T01:24:52.966Z,95344.91
2023-04-12T01:27:31.018Z,95346.75
2023-04-12T01:29:59.087Z,95343.97
2023-04-12T01:32:28.200Z,95334.19
2023-04-12T01:34:56.351Z,95341.09
2023-04-12T01:37:24.452Z,95326.84
2023-04-12T01:39:52.799Z,95322.94
2023-04-12T01:42:20.981Z,95324.53
2023-04-12T01:44:51.273Z,95320.03
2023-04-12T01:47:19.388Z,95306.81
2023-04-12T01:49:50.395Z,95308.69
2023-04-12T01:52:20.773Z,95309.47
2023-04-12T01:54:50.703Z,95306.03
2023-04-12T01:57:18.871Z,95307.97
2023-04-12T01:59:48.890Z,95298.53
2023-04-12T02:02:18.795Z,95294.59
2023-04-12T02:04:46.967Z,95300.69
2023-04-12T02:07:15.766Z,95293.25
2023-04-12T02:09:43.853Z,95280.50
2023-04-12T02:12:12.770Z,95282.91
2023-04-12T02:14:40.919Z,95285.84
2023-04-12T02:17:09.651Z,95281.63
2023-04-12T02:19:40.517Z,95283.47
2023-04-12T02:22:08.948Z,95271.28
2023-04-12T02:24:37.088Z,95277.03
2023-04-12T02:27:06.087Z,95268.66
2023-04-12T02:29:35.313Z,95261.84
2023-04-12T02:32:04.735Z,95266.66
2023-04-12T02:34:36.669Z,95259.53
2023-04-12T02:37:18.203Z,95253.66
2023-04-12T02:39:46.338Z,95243.09
2023-04-12T02:42:14.791Z,95250.56
2023-04-12T02:44:47.832Z,95237.34
2023-04-12T02:47:16.737Z,95238.28
2023-04-12T02:49:48.456Z,95243.81
2023-04-12T02:52:20.549Z,95239.34
2023-04-12T02:55:08.161Z,95237.91
2023-04-12T02:57:36.364Z,95230.63
2023-04-12T03:00:11.827Z,95229.66
2023-04-12T03:02:44.107Z,95228.84
2023-04-12T03:05:19.597Z,95226.69
2023-04-12T03:07:49.251Z,95220.34
2023-04-12T03:10:21.409Z,95206.09
2023-04-12T03:12:56.632Z,95210.09
2023-04-12T03:15:33.386Z,95205.63
2023-04-12T03:18:02.492Z,95199.28
2023-04-12T03:20:35.159Z,95200.56
2023-04-12T03:23:08.684Z,95193.66
2023-04-12T03:25:40.982Z,95199.47
2023-04-12T03:28:32.129Z,95195.50
2023-04-12T03:31:01.827Z,95190.56
2023-04-12T03:33:39.853Z,95192.50
2023-04-12T03:36:12.844Z,95189.56
2023-04-12T03:38:42.324Z,95182.38
2023-04-12T03:41:12.617Z,95175.50
2023-04-12T03:43:42.619Z,95178.13
2023-04-12T03:46:18.433Z,95176.06
2023-04-12T03:48:53.674Z,95172.59
2023-04-12T03:51:26.839Z,95177.38
2023-04-12T03:54:04.489Z,95177.16
2023-04-12T03:56:43.199Z,95171.63
2023-04-12T03:59:20.662Z,95163.47
2023-04-12T04:01:51.077Z,95170.34
2023-04-12T04:04:20.499Z,95169.31
2023-04-12T04:06:50.648Z,95167.94
2023-04-12T04:09:20.933Z,95169.22
2023-04-12T04:11:50.084Z,95158.34
2023-04-12T04:14:19.540Z,95157.31
2023-04-12T04:16:47.714Z,95161.00
2023-04-12T04:19:17.537Z,95142.78
2023-04-12T04:21:48.046Z,95145.50
2023-04-12T04:24:18.815Z,95147.91
2023-04-12T04:26:54.392Z,95151.09
2023-04-12T04:29:27.810Z,95138.19
2023-04-12T04:31:57.557Z,95135.56
2023-04-12T04:34:26.565Z,95131.88
2023-04-12T04:37:02.938Z,95131.63
2023-04-12T04:39:31.046Z,95133.75
2023-04-12T04:42:02.671Z,95123.75
2023-04-12T04:44:38.022Z,95117.16
2023-04-12T04:47:08.836Z,95120.13
2023-04-12T04:49:37.395Z,95116.19
2023-04-12T04:52:13.295Z,95116.75
2023-04-12T04:54:41.644Z,95112.81
2023-04-12T04:57:11.780Z,95115.78
2023-04-12T04:59:41.574Z,95120.88
2023-04-12T05:02:16.497Z,95115.13
2023-04-12T05:04:46.498Z,95115.63
2023-04-12T05:07:18.183Z,95112.03
2023-04-12T05:09:48.392Z,95116.56
2023-04-12T05:12:35.162Z,95106.28
2023-04-12T05:17:35.891Z,95108.25
2023-04-12T05:20:08.004Z,95098.22
2023-04-12T05:22:36.866Z,95095.31
2023-04-12T05:25:05.449Z,95094.81
2023-04-12T05:27:40.122Z,95091.44
2023-04-12T05:30:21.195Z,95093.88
2023-04-12T05:32:50.455Z,95085.72
2023-04-12T05:35:19.965Z,95085.03
2023-04-12T05:37:49.999Z,95081.91
2023-04-12T05:40:18.160Z,95085.13
2023-04-12T05:42:51.152Z,95085.44
2023-04-12T05:45:19.512Z,95078.03
2023-04-12T05:47:47.951Z,95067.44
2023-04-12T05:50:16.253Z,95083.38
2023-04-12T05:52:45.089Z,95064.34
2023-04-12T05:55:13.685Z,95065.97
2023-04-12T05:57:43.059Z,95060.72
2023-04-12T06:00:17.068Z,95056.25
2023-04-12T06:02:47.680Z,95038.53
2023-04-12T06:05:17.876Z,95037.25
2023-04-12T06:07:47.052Z,95041.03
2023-04-12T06:10:15.892Z,95040.00
2023-04-12T06:12:44.527Z,95037.41
2023-04-12T06:15:14.619Z,95038.22
2023-04-12T06:17:43.709Z,95040.13
2023-04-12T06:20:13.018Z,95050.28
2023-04-12T06:22:41.180Z,95039.72
2023-04-12T06:25:09.928Z,95039.31
2023-04-12T06:27:38.495Z,95040.41
2023-04-12T06:30:07.883Z,95029.53
2023-04-12T06:32:39.188Z,95019.44
2023-04-12T06:35:08.415Z,95015.75
2023-04-12T06:37:36.627Z,95014.44
2023-04-12T06:40:05.732Z,95011.00
2023-04-12T06:42:33.777Z,95011.53
2023-04-12T06:45:02.295Z,95000.94
2023-04-12T06:47:30.841Z,95000.16
2023-04-12T06:50:00.454Z,95002.81
2023-04-12T06:52:28.540Z,94993.75
2023-04-12T06:54:57.551Z,94987.38
2023-04-12T06:57:25.738Z,94994.00
2023-04-12T06:59:53.815Z,94986.56
2023-04-12T07:02:22.118Z,94987.06
2023-04-12T07:04:53.314Z,94979.88
2023-04-12T07:07:23.135Z,94969.75
2023-04-12T07:09:52.316Z,94972.38
2023-04-12T07:12:20.469Z,94967.53
2023-04-12T07:14:48.558Z,94959.25
2023-04-12T07:17:16.638Z,94954.97
2023-04-12T07:19:44.781Z,94950.16
2023-04-12T07:22:14.164Z,94941.00
2023-04-12T07:24:43.813Z,94940.63
2023-04-12T07:27:11.948Z,94948.84
2023-04-12T07:29:40.059Z,94934.94
2023-04-12T07:32:09.334Z,94934.13
2023-04-12T07:34:37.835Z,94931.47
2023-04-12T07:37:06.212Z,94929.88
2023-04-12T07:39:34.991Z,94917.91
2023-04-12T07:42:04.542Z,94915.03
2023-04-12T07:44:35.604Z,94906.03
2023-04-12T07:47:05.697Z,94901.44
2023-04-12T07:49:33.930Z,94908.38
2023-04-12T07:52:02.056Z,94902.19
2023-04-12T07:54:30.168Z,94898.44
2023-04-12T07:57:02.471Z,94901.94
2023-04-12T07:59:32.234Z,94901.31
2023-04-12T08:02:01.219Z,94897.25
2023-04-12T08:04:29.459Z,94902.31
2023-04-12T08:06:57.654Z,94894.53
2023-04-12T08:09:26.006Z,94887.59
2023-04-12T08:11:54.145Z,94886.59
2023-04-12T08:14:22.701Z,94886.84
2023-04-12T08:16:52.215Z,94885.19
2023-04-12T08:19:21.519Z,94892.94
2023-04-12T08:21:49.573Z,94882.34
2023-04-12T08:24:17.782Z,94880.09
2023-04-12T08:26:46.320Z,94880.84
2023-04-12T08:29:14.361Z,94882.78
2023-04-12T08:31:42.444Z,94880.00
2023-04-12T08:34:12.104Z,94876.66
2023-04-12T08:36:40.466Z,94866.84
2023-04-12T08:39:09.517Z,94872.78
2023-04-12T08:41:39.181Z,94867.38
2023-04-12T08:44:07.363Z,94861.50
2023-04-12T08:46:37.060Z,94862.78
2023-04-12T08:49:05.244Z,94862.41
2023-04-12T08:51:34.844Z,94851.22
2023-04-12T08:54:03.446Z,94852.69
2023-04-12T08:56:31.582Z,94846.34
2023-04-12T08:58:59.679Z,94850.75
2023-04-12T09:01:27.868Z,94851.09
2023-04-12T09:03:56.204Z,94828.91
2023-04-12T09:06:24.350Z,94829.63
2023-04-12T09:08:55.008Z,94831.13
2023-04-12T09:11:24.454Z,94833.84
2023-04-12T09:13:52.738Z,94822.19
2023-04-12T09:16:35.565Z,94824.28
2023-04-12T09:19:03.743Z,94814.03
2023-04-12T09:21:33.008Z,94811.28
2023-04-12T09:24:11.810Z,94820.47
2023-04-12T09:26:42.373Z,94820.47
2023-04-12T09:29:23.150Z,94801.63
2023-04-12T09:31:57.089Z,94803.13
2023-04-12T09:34:26.633Z,94804.31
2023-04-12T09:36:57.331Z,94793.75
2023-04-12T09:39:34.238Z,94778.53
2023-04-12T09:42:12.389Z,94780.81
2023-04-12T09:44:46.639Z,94776.78
2023-04-12T09:47:14.899Z,94770.91
2023-04-12T09:49:43.783Z,94774.97
2023-04-12T09:52:12.752Z,94748.75
2023-04-12T09:54:44.005Z,94751.53
2023-04-12T09:57:12.545Z,94748.69
2023-04-12T09:59:41.330Z,94744.44
2023-04-12T10:02:12.865Z,94745.31
2023-04-12T10:04:42.146Z,94742.97
2023-04-12T10:07:10.766Z,94749.06
2023-04-12T10:09:40.571Z,94732.63
2023-04-12T10:12:11.244Z,94729.34
2023-04-12T10:14:39.405Z,94722.47
2023-04-12T10:17:07.868Z,94721.41
2023-04-12T10:19:36.021Z,94709.31
2023-04-12T10:22:04.070Z,94710.13
2023-04-12T10:24:32.348Z,94692.56
2023-04-12T10:27:03.405Z,94691.34
2023-04-12T10:29:34.602Z,94692.97
2023-04-12T10:32:20.877Z,94687.00
2023-04-12T10:34:51.874Z,94683.75
2023-04-12T10:37:20.049Z,94676.72
2023-04-12T10:39:53.409Z,94675.13
2023-04-12T10:42:28.060Z,94669.00
2023-04-12T10:45:37.671Z,94659.97
2023-04-12T10:48:06.759Z,94669.16
2023-04-12T10:50:35.520Z,94656.09
2023-04-12T10:53:26.807Z,94660.56
2023-04-12T10:55:55.177Z,94645.59
2023-04-12T10:58:56.287Z,94657.56
2023-04-12T11:01:26.857Z,94649.00
2023-04-12T11:04:14.874Z,94640.25
2023-04-12T11:06:59.022Z,94654.53
2023-04-12T11:09:48.239Z,94635.72
2023-04-12T11:12:22.665Z,94648.84
2023-04-12T11:14:51.890Z,94645.50
2023-04-12T11:17:28.022Z,94648.94
2023-04-12T11:20:00.405Z,94646.13
2023-04-12T11:22:30.037Z,94654.84
2023-04-12T11:24:59.116Z,94637.53
2023-04-12T11:27:28.435Z,94640.00
2023-04-12T11:29:57.618Z,94646.75
2023-04-12T11:32:28.130Z,94632.16
2023-04-12T11:34:57.023Z,94626.84
2023-04-12T11:37:27.006Z,94635.44
2023-04-12T11:39:57.657Z,94634.75
2023-04-12T11:42:26.241Z,94632.88
2023-04-12T11:44:57.582Z,94623.75
2023-04-12T11:47:30.100Z,94622.09
2023-04-12T11:50:00.129Z,94619.63
2023-04-12T11:52:32.093Z,94622.03
2023-04-12T11:55:02.006Z,94612.44
2023-04-12T11:57:31.194Z,94619.16
2023-04-12T11:59:59.948Z,94624.03
2023-04-12T12:02:34.412Z,94628.00
2023-04-12T12:05:03.429Z,94621.19
2023-04-12T12:07:31.846Z,94609.84
2023-04-12T12:10:00.344Z,94609.66
2023-04-12T12:12:28.604Z,94606.16
2023-04-12T12:14:57.023Z,94611.50
2023-04-12T12:17:25.267Z,94602.69
2023-04-12T12:19:58.105Z,94594.63
2023-04-12T12:22:26.668Z,94596.50
2023-04-12T12:24:56.697Z,94598.09
2023-04-12T12:27:25.508Z,94581.47
2023-04-12T12:29:55.752Z,94579.63
2023-04-12T12:32:24.372Z,94569.25
2023-04-12T12:34:55.202Z,94578.06
2023-04-12T12:37:25.034Z,94577.63
2023-04-12T12:40:13.744Z,94569.91
2023-04-12T12:42:46.609Z,94566.13
2023-04-12T12:45:14.798Z,94563.00
2023-04-12T12:47:50.832Z,94549.31
2023-04-12T12:50:22.045Z,94543.25
2023-04-12T12:52:52.291Z,94543.41
2023-04-12T12:55:21.289Z,94536.72
2023-04-12T12:58:06.135Z,94529.84
2023-04-12T13:00:36.514Z,94514.88
2023-04-12T13:03:05.484Z,94525.47
2023-04-12T13:05:35.446Z,94510.34
2023-04-12T13:08:03.502Z,94513.88
2023-04-12T13:10:31.578Z,94509.53
2023-04-12T13:13:01.736Z,94505.78
2023-04-12T13:15:29.861Z,94503.97
2023-04-12T13:17:58.449Z,94497.84
2023-04-12T13:20:27.370Z,94496.81
2023-04-12T13:22:56.914Z,94492.56
2023-04-12T13:25:24.974Z,94494.94
2023-04-12T13:27:53.339Z,94479.97
2023-04-12T13:30:21.908Z,94463.25
2023-04-12T13:32:50.138Z,94459.09
2023-04-12T13:35:18.485Z,94453.78
2023-04-12T13:37:46.534Z,94456.38
2023-04-12T13:40:16.072Z,94450.28
2023-04-12T13:42:44.306Z,94455.69
2023-04-12T13:45:13.111Z,94448.94
2023-04-12T13:47:41.394Z,94458.03
2023-04-12T13:50:10.391Z,94455.31
2023-04-12T13:52:38.510Z,94448.19
2023-04-12T13:55:08.562Z,94446.06
2023-04-12T13:57:38.226Z,94442.56
2023-04-12T14:00:07.929Z,94456.69
2023-04-12T14:02:36.156Z,94453.34
2023-04-12T14:05:04.447Z,94445.44
2023-04-12T14:07:32.573Z,94451.28
2023-04-12T14:10:00.611Z,94445.66
2023-04-12T14:12:29.091Z,94441.91
2023-04-12T14:14:58.553Z,94431.38
2023-04-12T14:17:32.344Z,94436.56
2023-04-12T14:20:00.870Z,94429.72
2023-04-12T14:22:29.145Z,94443.09
2023-04-12T14:24:57.254Z,94441.69
2023-04-12T14:27:25.688Z,94438.06
2023-04-12T14:29:53.805Z,94448.28
2023-04-12T14:32:23.278Z,94440.53
2023-04-12T14:34:51.720Z,94445.00
2023-04-12T14:37:19.869Z,94438.28
2023-04-12T14:39:48.251Z,94433.28
2023-04-12T14:42:16.292Z,94442.97
2023-04-12T14:44:44.320Z,94437.53
2023-04-12T14:47:12.432Z,94440.00
2023-04-12T14:49:41.990Z,94443.28
2023-04-12T14:52:10.021Z,94425.97
2023-04-12T14:54:38.768Z,94432.38
2023-04-12T14:57:06.987Z,94433.44
2023-04-12T14:59:35.177Z,94430.06
2023-04-12T15:02:07.667Z,94428.00
2023-04-12T15:04:37.012Z,94434.81
2023-04-12T15:07:07.028Z,94430.97
2023-04-12T15:09:35.144Z,94430.06
2023-04-12T15:12:03.240Z,94416.53
2023-04-12T15:14:31.512Z,94426.63
2023-04-12T15:16:59.563Z,94417.75
2023-04-12T15:19:27.662Z,94419.22
2023-04-12T15:21:56.539Z,94409.91
2023-04-12T15:24:26.233Z,94410.47
2023-04-12T15:26:54.461Z,94411.94
2023-04-12T15:29:24.350Z,94403.53
2023-04-12T15:31:52.869Z,94400.81
2023-04-12T15:34:23.486Z,94388.75
2023-04-12T15:36:52.023Z,94386.72
2023-04-12T15:39:20.245Z,94384.78
2023-04-12T15:41:49.748Z,94385.22
2023-04-12T15:44:17.904Z,94381.31
2023-04-12T15:46:53.340Z,94367.94
2023-04-12T15:49:27.559Z,94372.38
2023-04-12T15:51:56.769Z,94380.97
2023-04-12T15:54:24.855Z,94368.28
2023-04-12T15:56:54.985Z,94371.66
2023-04-12T15:59:23.065Z,94368.28
2023-04-12T16:01:52.346Z,94370.31
2023-04-12T16:04:20.734Z,94371.06
2023-04-12T16:06:48.988Z,94369.88
2023-04-12T16:09:17.060Z,94366.34
2023-04-12T16:11:46.602Z,94372.03
2023-04-12T16:14:16.571Z,94357.00
2023-04-12T16:16:44.962Z,94361.63
2023-04-12T16:19:13.327Z,94360.69
2023-04-12T16:21:44.341Z,94356.09
2023-04-12T16:24:13.382Z,94355.59
2023-04-12T16:26:42.022Z,94346.59
2023-04-12T16:29:10.823Z,94360.53
2023-04-12T16:31:40.359Z,94355.78
2023-04-12T16:34:09.600Z,94361.63
2023-04-12T16:36:38.615Z,94359.25
2023-04-12T16:39:06.989Z,94354.03
2023-04-12T16:41:35.402Z,94343.59
2023-04-12T16:44:04.212Z,94361.13
2023-04-12T16:46:32.378Z,94351.63
2023-04-12T16:49:03.798Z,94354.91
2023-04-12T16:51:36.740Z,94353.63
2023-04-12T16:54:05.636Z,94352.53
2023-04-12T16:56:34.196Z,94352.06
2023-04-12T16:59:02.298Z,94338.03
2023-04-12T17:01:30.359Z,94340.00
2023-04-12T17:04:00.340Z,94332.00
2023-04-12T17:06:30.381Z,94329.03
2023-04-12T17:08:59.410Z,94326.34
2023-04-12T17:11:29.319Z,94323.47
2023-04-12T17:13:57.817Z,94316.97
2023-04-12T17:16:26.176Z,94330.13
2023-04-12T17:18:54.261Z,94320.34
2023-04-12T17:21:22.784Z,94315.09
2023-04-12T17:23:53.534Z,94318.97
2023-04-12T17:26:25.088Z,94324.63
2023-04-12T17:28:53.218Z,94324.72
2023-04-12T17:31:22.617Z,94327.41
2023-04-12T17:33:51.117Z,94325.03
2023-04-12T17:36:19.206Z,94313.84
2023-04-12T17:38:47.364Z,94320.09
2023-04-12T17:41:16.854Z,94320.09
2023-04-12T17:43:47.188Z,94317.91
2023-04-12T17:46:15.293Z,94314.25
2023-04-12T17:48:43.800Z,94318.81
2023-04-12T17:51:11.860Z,94330.78
2023-04-12T17:53:39.938Z,94323.84
2023-04-12T17:56:08.314Z,94326.22
2023-04-12T17:58:37.774Z,94324.34
2023-04-12T18:01:06.669Z,94315.84
2023-04-12T18:03:36.370Z,94329.19
2023-04-12T18:06:04.826Z,94343.63
2023-04-12T18:08:32.989Z,94331.84
2023-04-12T18:11:01.034Z,94327.59
2023-04-12T18:13:29.354Z,94321.78
2023-04-12T18:15:59.363Z,94315.94
2023-04-12T18:18:27.608Z,94327.91
2023-04-12T18:20:55.794Z,94330.78
2023-04-12T18:23:23.945Z,94336.59
2023-04-12T18:25:52.087Z,94328.91
2023-04-12T18:28:20.759Z,94324.34
2023-04-12T18:30:49.454Z,94325.31
2023-04-12T18:33:18.926Z,94346.38
2023-04-12T18:35:46.982Z,94338.66
2023-04-12T18:38:15.051Z,94333.03
2023-04-12T18:40:43.539Z,94326.31
2023-04-12T18:43:11.714Z,94330.25
2023-04-12T18:45:41.038Z,94304.16
2023-04-12T18:48:09.887Z,94291.41
2023-04-12T18:50:39.829Z,94276.91
2023-04-12T18:53:07.993Z,94266.13
2023-04-12T18:55:36.422Z,94261.19
2023-04-12T18:58:04.594Z,94271.78
2023-04-12T19:00:33.109Z,94286.00
2023-04-12T19:03:01.381Z,94297.06
2023-04-12T19:05:30.357Z,94291.72
2023-04-12T19:08:01.549Z,94302.59
2023-04-12T19:10:30.893Z,94313.44
2023-04-12T19:12:58.990Z,94325.84
2023-04-12T19:15:27.198Z,94326.94
2023-04-12T19:17:55.357Z,94340.53
2023-04-12T19:20:23.470Z,94355.75
2023-04-12T19:22:52.095Z,94353.88
2023-04-12T19:25:21.912Z,94357.31
2023-04-12T19:27:50.001Z,94353.28
2023-04-12T19:30:18.478Z,94352.22
2023-04-12T19:32:46.664Z,94358.34
2023-04-12T19:35:15.247Z,94354.28
2023-04-12T19:37:43.599Z,94355.06
2023-04-12T19:40:12.533Z,94355.00
2023-04-12T19:42:42.409Z,94342.66
2023-04-12T19:45:10.845Z,94351.38
2023-04-12T19:47:45.085Z,94354.81
2023-04-12T19:50:15.034Z,94368.94
2023-04-12T19:52:43.629Z,94370.25
2023-04-12T19:55:11.946Z,94374.47
2023-04-12T19:57:41.770Z,94370.25
2023-04-12T20:00:12.891Z,94374.97
2023-04-12T20:02:41.515Z,94364.31
2023-04-12T20:05:10.670Z,94356.59
2023-04-12T20:07:38.960Z,94359.16
2023-04-12T20:10:10.338Z,94380.34
2023-04-12T20:12:38.971Z,94392.38
2023-04-12T20:15:11.130Z,94388.16
2023-04-12T20:17:41.301Z,94397.25
2023-04-12T20:20:11.057Z,94394.56
2023-04-12T20:22:40.033Z,94397.81
2023-04-12T20:25:09.603Z,94393.56
2023-04-12T20:27:38.664Z,94399.97
2023-04-12T20:30:11.336Z,94407.59
2023-04-12T20:32:39.594Z,94390.84
2023-04-12T20:35:09.014Z,94394.63
2023-04-12T20:37:37.656Z,94404.50
2023-04-12T20:40:07.367Z,94408.53
2023-04-12T20:42:35.570Z,94409.66
2023-04-12T20:45:04.314Z,94421.66
2023-04-12T20:47:34.770Z,94413.41
2023-04-12T20:50:02.933Z,94398.50
2023-04-12T20:52:31.350Z,94412.63
2023-04-12T20:54:59.475Z,94399.91
2023-04-12T20:57:28.252Z,94389.81
2023-04-12T20:59:56.837Z,94385.06
2023-04-12T21:02:25.257Z,94376.88
2023-04-12T21:04:55.891Z,94372.41
2023-04-12T21:07:26.200Z,94379.09
2023-04-12T21:09:54.346Z,94385.28
2023-04-12T21:12:22.382Z,94377.88
2023-04-12T21:14:51.516Z,94389.59
2023-04-12T21:17:22.527Z,94391.75
2023-04-12T21:19:51.226Z,94396.59
2023-04-12T21:22:21.083Z,94402.72
2023-04-12T21:24:49.172Z,94394.50
2023-04-12T21:27:17.619Z,94387.09
2023-04-12T21:29:47.255Z,94395.06
2023-04-12T21:32:15.332Z,94393.81
2023-04-12T21:34:43.376Z,94384.78
2023-04-12T21:37:12.039Z,94402.34
2023-04-12T21:39:43.633Z,94407.97
2023-04-12T21:42:11.858Z,94402.13
2023-04-12T21:44:42.434Z,94394.41
2023-04-12T21:47:10.511Z,94403.44
2023-04-12T21:49:38.620Z,94406.88
2023-04-12T21:52:06.701Z,94414.88
2023-04-12T21:54:36.948Z,94413.28
2023-04-12T21:57:06.912Z,94425.28
2023-04-12T21:59:35.001Z,94420.06
2023-04-12T22:02:03.223Z,94423.56
2023-04-12T22:04:31.483Z,94425.22
2023-04-12T22:07:02.156Z,94420.47
2023-04-12T22:09:30.249Z,94424.00
2023-04-12T22:12:02.024Z,94438.38
2023-04-12T22:14:31.768Z,94434.56
2023-04-12T22:16:59.892Z,94448.94
2023-04-12T22:19:28.010Z,94449.97
2023-04-12T22:21:56.524Z,94438.44
2023-04-12T22:24:26.065Z,94438.44
2023-04-12T22:26:57.421Z,94445.66
2023-04-12T22:29:25.628Z,94454.94
2023-04-12T22:31:55.625Z,94462.94
2023-04-12T22:34:23.706Z,94461.34
2023-04-12T22:36:52.243Z,94466.66
2023-04-12T22:39:20.978Z,94471.47
2023-04-12T22:41:49.953Z,94478.66
2023-04-12T22:44:18.520Z,94473.41
2023-04-12T22:46:48.366Z,94476.44
2023-04-12T22:49:18.320Z,94469.53
2023-04-12T22:51:46.490Z,94483.38
2023-04-12T22:54:14.676Z,94486.88
2023-04-12T22:56:45.347Z,94486.69
2023-04-12T22:59:14.375Z,94486.16
2023-04-12T23:01:42.495Z,94482.97
2023-04-12T23:04:11.552Z,94489.38
2023-04-12T23:06:41.700Z,94489.69
2023-04-12T23:09:09.908Z,94486.22
2023-04-12T23:11:39.739Z,94483.06
2023-04-12T23:14:08.308Z,94488.13
2023-04-12T23:16:39.002Z,94499.31
2023-04-12T23:19:07.329Z,94487.41
2023-04-12T23:21:36.316Z,94493.78
2023-04-12T23:24:06.376Z,94485.84
2023-04-12T23:26:36.383Z,94493.63
2023-04-12T23:29:04.638Z,94481.94
2023-04-12T23:31:33.177Z,94483.59
2023-04-12T23:34:03.618Z,94487.06
2023-04-12T23:36:31.686Z,94497.19
2023-04-12T23:39:01.432Z,94503.59
2023-04-12T23:41:32.082Z,94499.31
2023-04-12T23:44:01.081Z,94502.47
2023-04-12T23:46:29.526Z,94501.69
2023-04-12T23:48:57.720Z,94499.81
2023-04-12T23:51:25.767Z,94518.16
2023-04-12T23:53:54.347Z,94513.84
2023-04-12T23:56:22.533Z,94513.59
2023-04-12T23:58:52.265Z,94525.53
